Time;durP1;ratioP1;P1;durP2;ratioP2;P2;SDS_P1;SDS_P2;PMS_P1;PMS_P2;Temp;Humidity;BMP_temperature;BMP_pressure;BME280_temperature;BME280_humidity;BME280_pressure;Samples;Min_cycle;Max_cycle;Signal;HPM_P1;HPM_P2
2021/04/26 00:00:05;;;;;;;3.63;2.13;;;6.10;96.00;;;;;;5105623;28;20194;-73
2021/04/26 00:02:32;;;;;;;4.40;3.17;;;6.00;96.00;;;;;;5094123;28;20258;-73
2021/04/26 00:04:59;;;;;;;2.47;1.70;;;5.90;96.30;;;;;;5095000;28;20214;-74
2021/04/26 00:07:25;;;;;;;4.35;1.48;;;5.90;96.40;;;;;;5101865;28;20212;-73
2021/04/26 00:09:52;;;;;;;5.75;2.05;;;6.00;96.60;;;;;;5104564;28;20217;-73
2021/04/26 00:12:19;;;;;;;2.70;1.65;;;6.00;96.60;;;;;;5099658;28;20255;-73
2021/04/26 00:14:46;;;;;;;4.88;2.53;;;6.00;96.40;;;;;;5100262;28;20221;-73
2021/04/26 00:17:13;;;;;;;4.45;1.77;;;6.00;96.20;;;;;;5094100;28;20546;-72
2021/04/26 00:19:39;;;;;;;3.00;2.30;;;6.00;96.40;;;;;;5093457;28;20665;-73
2021/04/26 00:22:06;;;;;;;2.50;1.63;;;6.00;96.50;;;;;;5095788;28;20228;-74
2021/04/26 00:24:33;;;;;;;5.22;1.90;;;6.00;96.70;;;;;;5103647;28;20552;-72
2021/04/26 00:27:00;;;;;;;3.30;2.22;;;6.00;96.60;;;;;;5090256;28;20209;-73
2021/04/26 00:29:27;;;;;;;5.75;2.28;;;6.00;96.50;;;;;;5091285;28;20205;-75
2021/04/26 00:31:54;;;;;;;11.10;2.60;;;6.10;96.60;;;;;;5089740;28;20202;-73
2021/04/26 00:34:20;;;;;;;6.65;2.42;;;6.10;96.50;;;;;;5092283;28;20214;-73
2021/04/26 00:36:47;;;;;;;4.25;2.55;;;6.10;96.60;;;;;;5096529;28;20214;-73
2021/04/26 00:39:14;;;;;;;3.20;2.00;;;6.10;96.50;;;;;;5091233;28;20730;-74
2021/04/26 00:41:40;;;;;;;4.40;1.80;;;6.00;96.50;;;;;;5091406;28;20590;-73
2021/04/26 00:44:07;;;;;;;5.57;1.83;;;6.00;96.60;;;;;;5092434;28;20233;-73
2021/04/26 00:46:34;;;;;;;8.50;1.85;;;6.00;96.90;;;;;;5092686;28;20251;-73
2021/04/26 00:49:01;;;;;;;3.80;1.80;;;6.00;96.90;;;;;;5094900;28;20206;-74
2021/04/26 00:51:28;;;;;;;4.65;1.90;;;6.00;96.90;;;;;;5094518;28;20218;-74
2021/04/26 00:53:55;;;;;;;4.78;2.10;;;6.00;97.00;;;;;;5093871;28;20268;-73
2021/04/26 00:56:22;;;;;;;3.90;1.80;;;6.00;97.10;;;;;;5085680;28;20228;-73
2021/04/26 00:58:49;;;;;;;5.18;2.13;;;6.00;97.20;;;;;;5088488;28;20680;-73
2021/04/26 01:01:17;;;;;;;2.85;1.70;;;6.00;97.00;;;;;;5091657;28;20751;-73
2021/04/26 01:03:45;;;;;;;2.45;2.03;;;5.90;97.10;;;;;;5092347;28;20226;-73
2021/04/26 01:06:12;;;;;;;3.15;2.15;;;5.90;97.10;;;;;;5091294;28;20690;-73
2021/04/26 01:08:39;;;;;;;6.72;2.47;;;5.70;97.40;;;;;;5094178;28;20202;-74
2021/04/26 01:11:06;;;;;;;4.80;2.75;;;5.80;97.40;;;;;;5093573;28;20695;-74
2021/04/26 01:14:04;;;;;;;11.82;2.78;;;5.80;97.80;;;;;;5092078;28;20224;-74
2021/04/26 01:16:36;;;;;;;2.50;2.03;;;5.90;98.00;;;;;;5094059;28;20198;-74
2021/04/26 01:19:12;;;;;;;3.22;2.28;;;5.90;98.00;;;;;;5102308;28;20202;-74
2021/04/26 01:22:25;;;;;;;4.35;2.10;;;5.90;98.10;;;;;;5074126;28;20275;-73
2021/04/26 01:24:59;;;;;;;7.65;2.90;;;5.90;98.30;;;;;;5095771;28;20278;-73
2021/04/26 01:27:48;;;;;;;2.15;1.88;;;5.80;98.30;;;;;;5092444;28;20624;-74
2021/04/26 01:30:18;;;;;;;5.22;3.30;;;5.80;98.50;;;;;;5077323;28;20625;-74
2021/04/26 01:32:50;;;;;;;5.22;3.17;;;5.80;98.80;;;;;;5101686;28;20193;-73
2021/04/26 01:35:19;;;;;;;5.78;2.88;;;5.80;99.30;;;;;;5091950;28;20218;-73
2021/04/26 01:37:50;;;;;;;5.88;3.30;;;5.80;99.40;;;;;;5090083;28;20218;-72
2021/04/26 01:40:20;;;;;;;5.60;2.58;;;5.70;99.50;;;;;;5091002;28;20629;-73
2021/04/26 01:42:51;;;;;;;4.88;2.42;;;5.80;99.70;;;;;;5092002;28;20258;-73
2021/04/26 01:45:19;;;;;;;4.05;2.08;;;5.80;99.60;;;;;;5091187;28;20202;-73
2021/04/26 01:47:47;;;;;;;2.83;2.35;;;5.70;99.80;;;;;;5092108;28;20199;-73
2021/04/26 01:50:15;;;;;;;6.60;2.90;;;5.70;99.90;;;;;;5092675;28;20682;-73
2021/04/26 01:52:42;;;;;;;5.00;2.55;;;5.70;99.90;;;;;;5078096;28;20209;-73
2021/04/26 01:55:11;;;;;;;7.57;2.65;;;5.70;99.90;;;;;;5088702;28;20271;-74
2021/04/26 01:57:40;;;;;;;9.88;3.17;;;5.70;99.90;;;;;;5091785;28;20202;-74
2021/04/26 02:00:12;;;;;;;5.95;2.35;;;5.70;99.90;;;;;;5085760;28;20260;-73
2021/04/26 02:02:39;;;;;;;6.72;2.63;;;5.60;99.90;;;;;;5087893;28;20213;-73
2021/04/26 02:05:08;;;;;;;7.15;3.40;;;5.60;99.90;;;;;;5091391;28;20803;-73
2021/04/26 02:07:36;;;;;;;5.82;3.63;;;5.60;99.90;;;;;;5082276;28;20194;-73
2021/04/26 02:10:05;;;;;;;3.63;3.15;;;5.60;99.90;;;;;;5088522;28;20241;-73
2021/04/26 02:12:32;;;;;;;11.27;2.50;;;5.60;99.90;;;;;;5091526;28;20202;-73
2021/04/26 02:14:59;;;;;;;3.17;2.22;;;5.60;99.90;;;;;;5098748;28;20230;-73
2021/04/26 02:17:27;;;;;;;2.92;2.50;;;5.60;99.90;;;;;;5095609;28;20208;-73
2021/04/26 02:19:53;;;;;;;7.85;2.60;;;5.60;99.90;;;;;;5097911;28;20282;-73
2021/04/26 02:22:21;;;;;;;6.60;3.05;;;5.60;99.90;;;;;;5087738;28;20198;-72
2021/04/26 02:24:48;;;;;;;4.53;2.58;;;5.70;99.90;;;;;;5092346;28;20230;-72
2021/04/26 02:27:15;;;;;;;12.10;4.18;;;5.70;99.90;;;;;;5088330;28;20201;-73
2021/04/26 02:29:41;;;;;;;5.07;3.08;;;5.70;99.90;;;;;;5092729;28;20209;-73
2021/04/26 02:32:21;;;;;;;8.65;3.03;;;5.70;99.90;;;;;;5103881;28;20214;-73
2021/04/26 02:34:51;;;;;;;4.97;2.65;;;5.60;99.90;;;;;;5095276;28;20221;-72
2021/04/26 02:37:30;;;;;;;6.22;3.58;;;5.60;99.90;;;;;;5095189;28;20206;-73
2021/04/26 02:40:02;;;;;;;7.40;3.83;;;5.60;99.90;;;;;;5082633;28;20201;-73
2021/04/26 02:42:32;;;;;;;8.38;4.13;;;5.60;99.90;;;;;;5090204;28;20205;-73
2021/04/26 02:45:00;;;;;;;3.00;2.40;;;5.50;99.90;;;;;;5084791;28;20226;-73
2021/04/26 02:47:29;;;;;;;5.88;3.13;;;5.50;99.90;;;;;;5080587;28;20263;-74
2021/04/26 02:50:01;;;;;;;7.03;4.55;;;5.50;99.90;;;;;;5094967;28;20221;-74
2021/04/26 02:52:29;;;;;;;9.05;3.72;;;5.50;99.90;;;;;;5087499;28;20202;-74
2021/04/26 02:54:57;;;;;;;10.85;3.85;;;5.50;99.90;;;;;;5091187;28;20299;-73
2021/04/26 02:57:24;;;;;;;14.98;4.65;;;5.40;99.90;;;;;;5107419;28;20194;-73
2021/04/26 02:59:53;;;;;;;5.38;3.42;;;5.40;99.90;;;;;;5104973;28;20231;-73
2021/04/26 03:02:21;;;;;;;5.55;3.53;;;5.40;99.90;;;;;;5099879;28;20197;-73
2021/04/26 03:04:48;;;;;;;6.47;3.20;;;5.50;99.90;;;;;;5099811;28;20296;-74
2021/04/26 03:07:18;;;;;;;10.10;4.18;;;5.50;99.90;;;;;;5096721;28;20214;-74
2021/04/26 03:09:47;;;;;;;18.33;4.18;;;5.50;99.90;;;;;;5098429;28;20194;-74
2021/04/26 03:12:14;;;;;;;7.20;4.25;;;5.50;99.90;;;;;;5107424;28;20202;-73
2021/04/26 03:14:42;;;;;;;9.68;4.75;;;5.40;99.90;;;;;;5105463;28;20232;-74
2021/04/26 03:17:09;;;;;;;9.68;4.25;;;5.50;99.90;;;;;;5094707;28;20202;-73
2021/04/26 03:19:39;;;;;;;6.10;3.75;;;5.50;99.90;;;;;;5089107;28;20381;-73
2021/04/26 03:22:07;;;;;;;8.07;4.50;;;5.60;99.90;;;;;;5105008;28;20207;-73
2021/04/26 03:24:34;;;;;;;7.28;4.05;;;5.60;99.90;;;;;;5097857;28;20237;-73
2021/04/26 03:27:02;;;;;;;5.60;4.18;;;5.60;99.90;;;;;;5088920;28;20210;-74
2021/04/26 03:29:30;;;;;;;6.93;3.55;;;5.70;99.90;;;;;;5095849;28;20205;-74
2021/04/26 03:31:57;;;;;;;10.23;5.93;;;5.80;99.90;;;;;;5093502;28;20230;-74
2021/04/26 03:34:24;;;;;;;6.88;3.55;;;5.80;99.90;;;;;;5092449;28;20214;-73
2021/04/26 03:36:51;;;;;;;8.25;4.10;;;5.90;99.90;;;;;;5091881;28;20218;-73
2021/04/26 03:39:19;;;;;;;10.93;4.65;;;5.80;99.90;;;;;;5093627;28;20194;-73
2021/04/26 03:41:46;;;;;;;9.50;5.65;;;5.90;99.90;;;;;;5093884;28;20205;-72
2021/04/26 03:44:19;;;;;;;9.00;4.65;;;5.80;99.90;;;;;;5092633;28;20222;-74
2021/04/26 03:46:53;;;;;;;9.73;5.00;;;5.80;99.90;;;;;;5092223;28;20542;-73
2021/04/26 03:49:20;;;;;;;11.82;4.80;;;5.70;99.90;;;;;;5072068;28;20208;-74
2021/04/26 03:51:48;;;;;;;10.65;5.20;;;5.80;99.90;;;;;;5091086;28;20225;-73
2021/04/26 03:54:14;;;;;;;10.50;4.90;;;5.80;99.90;;;;;;5093680;28;20230;-73
2021/04/26 03:56:41;;;;;;;10.82;4.28;;;5.70;99.90;;;;;;5089265;28;20215;-74
2021/04/26 03:59:08;;;;;;;16.45;5.97;;;5.70;99.90;;;;;;5087325;28;20198;-74
2021/04/26 04:01:36;;;;;;;16.02;5.20;;;5.60;99.90;;;;;;5091842;28;20657;-74
2021/04/26 04:04:04;;;;;;;7.63;5.00;;;5.60;99.90;;;;;;5078370;28;20223;-73
2021/04/26 04:06:31;;;;;;;12.00;4.47;;;5.60;99.90;;;;;;5093352;28;20698;-73
2021/04/26 04:08:58;;;;;;;9.93;4.60;;;5.60;99.90;;;;;;5087070;28;20203;-73
2021/04/26 04:11:25;;;;;;;6.90;4.50;;;5.60;99.90;;;;;;5091394;28;20757;-73
2021/04/26 04:13:54;;;;;;;9.85;4.38;;;5.60;99.90;;;;;;5092276;28;20218;-73
2021/04/26 04:16:21;;;;;;;5.68;4.15;;;5.60;99.90;;;;;;5092593;28;20253;-73
2021/04/26 04:18:48;;;;;;;10.20;4.07;;;5.50;99.90;;;;;;5096637;28;20210;-72
2021/04/26 04:21:15;;;;;;;7.70;4.25;;;5.60;99.90;;;;;;5095018;28;20202;-73
2021/04/26 04:23:42;;;;;;;16.85;4.10;;;5.60;99.90;;;;;;5085419;28;20230;-74
2021/04/26 04:26:09;;;;;;;7.40;3.78;;;5.60;99.90;;;;;;5093045;28;20202;-72
2021/04/26 04:28:37;;;;;;;6.05;3.70;;;5.70;99.90;;;;;;5093264;28;20202;-73
2021/04/26 04:31:04;;;;;;;9.32;4.18;;;5.70;99.90;;;;;;5092950;28;20218;-74
2021/04/26 04:33:31;;;;;;;6.22;3.78;;;5.70;99.90;;;;;;5097865;28;20616;-73
2021/04/26 04:35:59;;;;;;;4.78;2.80;;;5.70;99.90;;;;;;5101907;28;20220;-72
2021/04/26 04:38:26;;;;;;;13.82;4.55;;;5.70;99.90;;;;;;5092371;28;20206;-73
2021/04/26 04:40:53;;;;;;;7.47;4.63;;;5.70;99.90;;;;;;5095628;28;20205;-73
2021/04/26 04:43:21;;;;;;;5.00;3.17;;;5.70;99.90;;;;;;5090811;28;20565;-73
2021/04/26 04:45:50;;;;;;;10.45;4.22;;;5.70;99.90;;;;;;5092831;28;20214;-73
2021/04/26 04:48:16;;;;;;;7.75;3.67;;;5.70;99.90;;;;;;5090377;28;20213;-72
2021/04/26 04:50:44;;;;;;;8.95;4.10;;;5.80;99.90;;;;;;5104655;28;20701;-72
2021/04/26 04:53:11;;;;;;;6.68;4.80;;;5.80;99.90;;;;;;5088579;28;20558;-73
2021/04/26 04:55:38;;;;;;;7.70;3.53;;;5.80;99.90;;;;;;5092627;28;20556;-73
2021/04/26 04:58:05;;;;;;;27.00;15.77;;;5.90;99.90;;;;;;5091374;28;20202;-71
2021/04/26 05:00:31;;;;;;;6.53;4.43;;;6.00;99.90;;;;;;5089998;28;20198;-72
2021/04/26 05:02:58;;;;;;;7.97;3.92;;;6.10;99.90;;;;;;5086154;28;20198;-72
2021/04/26 05:05:25;;;;;;;7.10;3.40;;;6.20;99.90;;;;;;5087341;28;20205;-71
2021/04/26 05:07:51;;;;;;;8.32;3.30;;;6.60;99.90;;;;;;5088058;28;20203;-72
2021/04/26 05:10:19;;;;;;;6.60;3.67;;;7.40;99.90;;;;;;5090779;28;20590;-72
2021/04/26 05:12:46;;;;;;;5.07;2.75;;;8.40;99.90;;;;;;5090698;28;20198;-73
2021/04/26 05:15:14;;;;;;;5.43;3.50;;;9.40;97.70;;;;;;5091724;28;20588;-73
2021/04/26 05:17:41;;;;;;;10.52;3.65;;;10.50;95.20;;;;;;5094232;28;20675;-72
2021/04/26 05:20:09;;;;;;;9.32;3.13;;;11.80;92.10;;;;;;5094935;28;20198;-72
2021/04/26 05:22:35;;;;;;;7.28;3.13;;;12.90;88.80;;;;;;5094670;28;20204;-72
2021/04/26 05:25:03;;;;;;;5.53;2.70;;;13.70;84.00;;;;;;5094153;28;20222;-72
2021/04/26 05:27:30;;;;;;;9.85;3.85;;;14.50;80.00;;;;;;5084257;28;20194;-74
2021/04/26 05:29:57;;;;;;;4.45;2.95;;;15.10;77.10;;;;;;5090766;28;20206;-72
2021/04/26 05:32:24;;;;;;;4.88;2.90;;;16.00;74.70;;;;;;5090119;28;20214;-72
2021/04/26 05:34:51;;;;;;;7.65;3.58;;;16.80;71.50;;;;;;5090242;28;20600;-72
2021/04/26 05:37:18;;;;;;;3.78;2.85;;;17.30;67.10;;;;;;5092580;28;20216;-72
2021/04/26 05:39:45;;;;;;;5.28;3.25;;;17.60;65.50;;;;;;5099709;28;20219;-71
2021/04/26 05:42:11;;;;;;;4.00;2.17;;;18.20;64.30;;;;;;5087212;28;20213;-72
2021/04/26 05:44:41;;;;;;;9.33;3.67;;;18.70;62.00;;;;;;5090865;28;20225;-72
2021/04/26 05:47:08;;;;;;;5.97;2.90;;;18.80;60.10;;;;;;5091561;28;20452;-71
2021/04/26 05:49:34;;;;;;;5.53;3.50;;;18.90;59.60;;;;;;5087738;28;20441;-73
2021/04/26 05:52:01;;;;;;;8.90;3.60;;;18.90;58.60;;;;;;5094649;28;20490;-71
2021/04/26 05:54:28;;;;;;;7.60;3.20;;;18.70;58.10;;;;;;5087220;28;20509;-73
2021/04/26 05:56:54;;;;;;;6.10;3.43;;;18.60;58.50;;;;;;5098018;28;20447;-71
2021/04/26 05:59:21;;;;;;;4.33;2.23;;;18.90;58.30;;;;;;5086093;28;20458;-71
2021/04/26 06:01:49;;;;;;;6.10;2.80;;;19.20;57.50;;;;;;5091492;28;20444;-73
2021/04/26 06:04:16;;;;;;;6.07;2.90;;;19.30;56.80;;;;;;5090969;28;20501;-70
2021/04/26 06:06:42;;;;;;;4.60;3.00;;;19.40;56.30;;;;;;5091226;28;20500;-70
2021/04/26 06:09:09;;;;;;;5.50;2.47;;;19.60;56.00;;;;;;5087987;28;20452;-73
2021/04/26 06:11:35;;;;;;;2.83;2.30;;;20.20;55.20;;;;;;5090665;28;20476;-71
2021/04/26 06:14:02;;;;;;;6.93;3.47;;;20.30;54.00;;;;;;5090128;28;20472;-72
2021/04/26 06:16:29;;;;;;;6.43;2.60;;;20.20;53.40;;;;;;5089691;28;20440;-73
2021/04/26 06:18:56;;;;;;;3.60;2.20;;;20.00;53.90;;;;;;5086713;28;20465;-73
2021/04/26 06:21:23;;;;;;;3.10;2.13;;;19.70;53.40;;;;;;5092405;28;20555;-70
2021/04/26 06:23:50;;;;;;;5.33;2.40;;;19.70;53.20;;;;;;5086556;28;20476;-72
2021/04/26 06:26:16;;;;;;;5.80;2.90;;;19.90;52.90;;;;;;5091238;28;20448;-74
2021/04/26 06:28:43;;;;;;;281.70;40.67;;;20.20;52.70;;;;;;5090886;28;20436;-71
2021/04/26 06:31:10;;;;;;;43.17;7.67;;;20.70;52.10;;;;;;5088430;28;20962;-72
2021/04/26 06:33:36;;;;;;;4.80;2.70;;;20.90;51.40;;;;;;5091739;28;20452;-71
2021/04/26 06:36:09;;;;;;;5.17;2.30;;;21.00;50.80;;;;;;5101326;28;20478;-70
2021/04/26 06:38:36;;;;;;;8.53;2.67;;;20.80;50.30;;;;;;5097854;28;21017;-72
2021/04/26 06:41:03;;;;;;;7.10;2.50;;;21.10;50.10;;;;;;5083711;28;20460;-72
2021/04/26 06:43:29;;;;;;;3.73;2.17;;;20.90;49.30;;;;;;5091211;28;20466;-74
2021/04/26 06:45:56;;;;;;;12.73;4.23;;;20.80;49.40;;;;;;5093663;28;20524;-73
2021/04/26 06:48:23;;;;;;;18.40;3.73;;;20.90;49.00;;;;;;5094486;28;20804;-73
2021/04/26 06:50:51;;;;;;;3.90;2.50;;;20.60;48.50;;;;;;5088028;28;20502;-73
2021/04/26 06:53:18;;;;;;;5.10;3.13;;;20.70;49.10;;;;;;5087755;28;20471;-72
2021/04/26 06:55:45;;;;;;;8.70;3.20;;;20.90;48.20;;;;;;5089130;28;20935;-70
2021/04/26 06:58:12;;;;;;;5.80;2.43;;;21.00;48.30;;;;;;5095601;28;20449;-72
2021/04/26 07:00:38;;;;;;;3.63;1.87;;;21.50;47.40;;;;;;5093410;28;20453;-72
2021/04/26 07:03:05;;;;;;;5.93;2.87;;;22.10;47.00;;;;;;5091382;28;20450;-74
2021/04/26 07:05:32;;;;;;;3.67;2.57;;;22.60;46.40;;;;;;5095350;28;20439;-73
2021/04/26 07:07:59;;;;;;;8.87;3.43;;;23.00;45.30;;;;;;5089598;28;20514;-70
2021/04/26 07:10:28;;;;;;;5.43;3.83;;;22.90;44.20;;;;;;5090675;28;20485;-73
2021/04/26 07:12:55;;;;;;;26.23;10.83;;;22.70;44.10;;;;;;5096129;28;20472;-72
2021/04/26 07:15:22;;;;;;;7.53;4.80;;;22.60;44.80;;;;;;5088521;28;20456;-72
2021/04/26 07:17:49;;;;;;;9.57;4.00;;;22.70;44.20;;;;;;5088217;28;20442;-71
2021/04/26 07:20:16;;;;;;;8.53;3.07;;;22.30;44.50;;;;;;5099861;28;20836;-72
2021/04/26 07:22:43;;;;;;;9.20;3.53;;;22.00;43.70;;;;;;5084991;28;20533;-72
2021/04/26 07:25:11;;;;;;;7.60;3.97;;;21.90;44.60;;;;;;5095509;28;20486;-71
2021/04/26 07:27:39;;;;;;;9.37;4.20;;;22.00;44.80;;;;;;5089863;28;20929;-73
2021/04/26 07:30:08;;;;;;;5.13;3.40;;;22.50;44.50;;;;;;5087348;28;20938;-72
2021/04/26 07:32:35;;;;;;;9.20;3.80;;;23.10;43.80;;;;;;5095753;28;20510;-71
2021/04/26 07:35:05;;;;;;;6.17;4.37;;;23.60;43.90;;;;;;5087443;28;20475;-73
2021/04/26 07:37:32;;;;;;;7.23;3.70;;;23.40;43.20;;;;;;5092521;28;20448;-73
2021/04/26 07:39:59;;;;;;;8.10;3.10;;;24.00;43.00;;;;;;5093941;28;20432;-74
2021/04/26 07:42:25;;;;;;;5.83;4.00;;;24.60;42.10;;;;;;5094192;28;20925;-72
2021/04/26 07:44:53;;;;;;;4.87;3.30;;;24.30;40.70;;;;;;5093521;28;20460;-74
2021/04/26 07:47:20;;;;;;;5.10;3.37;;;23.80;41.00;;;;;;5087784;28;20912;-72
2021/04/26 07:49:47;;;;;;;13.40;8.57;;;23.60;41.90;;;;;;5096486;28;20451;-72
2021/04/26 07:52:13;;;;;;;5.57;3.23;;;23.30;41.10;;;;;;5082751;28;20494;-70
2021/04/26 07:54:40;;;;;;;4.43;2.73;;;22.90;41.00;;;;;;5090086;28;20470;-73
2021/04/26 07:57:07;;;;;;;4.40;2.00;;;21.90;41.40;;;;;;5094439;28;20520;-71
2021/04/26 07:59:35;;;;;;;9.03;7.30;;;22.10;42.60;;;;;;5088468;28;20506;-73
2021/04/26 08:02:03;;;;;;;5.60;2.60;;;22.50;41.60;;;;;;5091110;28;20884;-74
2021/04/26 08:04:30;;;;;;;5.40;2.33;;;22.80;41.30;;;;;;5094717;28;20468;-71
2021/04/26 08:06:57;;;;;;;5.50;2.57;;;22.60;41.10;;;;;;5098640;28;20452;-72
2021/04/26 08:09:25;;;;;;;6.40;3.30;;;22.90;41.20;;;;;;5094668;28;20449;-70
2021/04/26 08:11:51;;;;;;;4.83;2.90;;;22.80;40.90;;;;;;5084602;28;20473;-71
2021/04/26 08:14:18;;;;;;;4.50;2.50;;;23.60;40.80;;;;;;5085405;28;20903;-72
2021/04/26 08:16:45;;;;;;;5.13;2.40;;;23.50;39.70;;;;;;5093485;28;20480;-73
2021/04/26 08:19:13;;;;;;;6.60;3.30;;;23.20;40.30;;;;;;5088793;28;20469;-72
2021/04/26 08:21:40;;;;;;;3.90;2.43;;;23.20;39.70;;;;;;5100760;28;20467;-74
2021/04/26 08:24:07;;;;;;;5.17;2.60;;;23.00;40.20;;;;;;5100176;28;20468;-70
2021/04/26 08:26:34;;;;;;;5.33;2.67;;;23.30;40.90;;;;;;5085446;28;20496;-73
2021/04/26 08:29:01;;;;;;;6.97;3.20;;;24.00;40.50;;;;;;5100124;28;20492;-71
2021/04/26 08:31:27;;;;;;;3.70;2.83;;;23.50;39.80;;;;;;5092529;28;20484;-73
2021/04/26 08:33:54;;;;;;;3.77;2.73;;;23.40;40.30;;;;;;5093222;28;20479;-72
2021/04/26 08:36:22;;;;;;;5.37;3.10;;;24.00;41.40;;;;;;5092483;28;20452;-70
2021/04/26 08:38:51;;;;;;;6.00;2.83;;;24.00;40.60;;;;;;5084812;28;20519;-73
2021/04/26 08:41:18;;;;;;;4.00;2.77;;;24.00;39.80;;;;;;5092361;28;20445;-71
2021/04/26 08:43:47;;;;;;;6.87;2.83;;;23.50;38.20;;;;;;5080471;28;20460;-71
2021/04/26 08:46:14;;;;;;;4.50;2.67;;;23.10;37.50;;;;;;5101925;28;20435;-73
2021/04/26 08:48:41;;;;;;;7.10;2.63;;;23.30;37.70;;;;;;5086880;28;20466;-69
2021/04/26 08:51:08;;;;;;;3.10;2.00;;;22.90;38.90;;;;;;5108708;28;20489;-73
2021/04/26 08:53:36;;;;;;;5.13;2.93;;;23.00;38.70;;;;;;5090782;28;20472;-73
2021/04/26 08:56:05;;;;;;;8.10;2.50;;;23.50;39.70;;;;;;5083781;28;20518;-72
2021/04/26 08:58:32;;;;;;;5.80;2.57;;;23.20;38.80;;;;;;5100594;28;20459;-73
2021/04/26 09:00:58;;;;;;;9.37;2.93;;;22.50;38.80;;;;;;5095299;28;20957;-70
2021/04/26 09:03:32;;;;;;;5.30;2.97;;;20.90;38.30;;;;;;5092097;28;20483;-70
2021/04/26 09:05:58;;;;;;;5.93;2.70;;;19.60;39.80;;;;;;5087243;28;20471;-71
2021/04/26 09:08:27;;;;;;;4.10;2.30;;;18.50;41.20;;;;;;5097294;28;20448;-71
2021/04/26 09:11:01;;;;;;;4.40;3.17;;;19.00;43.00;;;;;;5080256;28;20480;-72
2021/04/26 09:13:34;;;;;;;3.40;2.30;;;19.90;41.60;;;;;;5077719;28;20978;-70
2021/04/26 09:16:03;;;;;;;5.30;2.73;;;20.00;41.80;;;;;;5092400;28;20559;-69
2021/04/26 09:18:47;;;;;;;4.17;2.30;;;20.50;40.90;;;;;;5076051;28;20441;-72
2021/04/26 09:21:16;;;;;;;5.07;2.60;;;20.90;41.20;;;;;;5103627;28;20551;-73
2021/04/26 09:23:44;;;;;;;3.50;1.73;;;22.10;40.10;;;;;;5084372;28;20463;-73
2021/04/26 09:26:29;;;;;;;3.93;2.53;;;22.50;38.60;;;;;;5100781;28;20443;-74
2021/04/26 09:29:18;;;;;;;2.83;1.97;;;22.60;37.40;;;;;;5097414;28;20485;-70
2021/04/26 09:32:02;;;;;;;3.43;2.33;;;22.10;37.70;;;;;;5086980;28;20948;-72
2021/04/26 09:34:31;;;;;;;7.13;2.40;;;20.30;38.80;;;;;;5083557;28;20503;-73
2021/04/26 09:37:15;;;;;;;4.43;2.40;;;19.00;40.80;;;;;;5083171;28;20456;-73
2021/04/26 09:40:06;;;;;;;3.05;1.90;;;18.10;41.90;;;;;;5077464;28;20913;-72
2021/04/26 09:42:43;;;;;;;11.30;3.20;;;17.40;43.20;;;;;;5093367;28;20643;-71
2021/04/26 09:45:25;;;;;;;4.55;2.55;;;17.10;43.10;;;;;;5090036;28;20224;-72
2021/04/26 09:48:08;;;;;;;4.13;2.38;;;16.70;43.60;;;;;;5095747;28;20241;-71
2021/04/26 09:50:38;;;;;;;9.50;3.50;;;16.40;45.40;;;;;;5096509;28;20226;-74
2021/04/26 09:53:09;;;;;;;5.50;2.85;;;16.10;44.90;;;;;;5090760;28;20597;-72
2021/04/26 09:55:35;;;;;;;6.85;2.42;;;16.10;45.40;;;;;;5092054;28;20323;-72
2021/04/26 09:58:04;;;;;;;4.32;2.58;;;16.00;45.80;;;;;;5092424;28;20207;-74
2021/04/26 10:00:31;;;;;;;6.32;2.60;;;16.30;45.70;;;;;;5091938;28;20213;-70
2021/04/26 10:02:58;;;;;;;4.53;2.45;;;16.00;45.20;;;;;;5088420;28;20213;-71
2021/04/26 10:05:25;;;;;;;7.25;2.70;;;15.70;45.80;;;;;;5092920;28;20210;-71
2021/04/26 10:07:53;;;;;;;3.50;2.83;;;15.50;46.10;;;;;;5081210;28;20681;-73
2021/04/26 10:10:19;;;;;;;8.30;3.05;;;15.40;46.10;;;;;;5080869;28;20577;-71
2021/04/26 10:12:46;;;;;;;6.15;3.10;;;15.50;46.40;;;;;;5089771;28;20194;-71
2021/04/26 10:15:15;;;;;;;5.22;2.08;;;16.00;45.60;;;;;;5090757;28;20697;-71
2021/04/26 10:17:46;;;;;;;13.93;3.13;;;16.80;45.90;;;;;;5092344;28;20633;-71
2021/04/26 10:20:15;;;;;;;4.77;2.50;;;18.20;44.30;;;;;;5091312;28;20517;-71
2021/04/26 10:22:43;;;;;;;7.43;2.20;;;19.30;42.60;;;;;;5101599;28;20450;-72
2021/04/26 10:25:14;;;;;;;5.50;2.83;;;19.20;40.60;;;;;;5084731;28;20472;-70
2021/04/26 10:27:44;;;;;;;3.00;2.53;;;18.90;39.20;;;;;;5091194;28;20458;-71
2021/04/26 10:30:12;;;;;;;4.80;2.20;;;18.30;40.20;;;;;;5085533;28;20455;-72
2021/04/26 10:32:56;;;;;;;6.30;2.73;;;18.50;40.30;;;;;;5094724;28;20478;-71
2021/04/26 10:35:24;;;;;;;7.10;2.58;;;18.40;39.50;;;;;;5092913;28;20432;-71
2021/04/26 10:37:51;;;;;;;5.75;2.55;;;18.30;40.60;;;;;;5095464;28;20219;-72
2021/04/26 10:40:21;;;;;;;4.22;2.67;;;17.70;40.10;;;;;;5094186;28;20288;-70
2021/04/26 10:42:49;;;;;;;4.82;2.95;;;17.40;39.10;;;;;;5093745;28;20226;-71
2021/04/26 10:45:25;;;;;;;4.47;2.33;;;17.40;40.80;;;;;;5095611;28;20222;-71
2021/04/26 10:48:12;;;;;;;4.38;2.85;;;17.60;41.30;;;;;;5096837;28;20204;-73
2021/04/26 10:50:50;;;;;;;4.25;2.70;;;17.70;41.40;;;;;;5097285;28;20245;-69
2021/04/26 10:53:17;;;;;;;4.30;2.72;;;17.50;41.70;;;;;;5083669;28;20240;-71
2021/04/26 10:55:49;;;;;;;4.20;2.80;;;17.30;41.10;;;;;;5088938;28;20208;-74
2021/04/26 10:58:25;;;;;;;5.50;2.85;;;16.90;41.80;;;;;;5089484;28;20205;-71
2021/04/26 11:00:53;;;;;;;4.72;2.45;;;16.60;43.40;;;;;;5091783;28;20201;-71
2021/04/26 11:03:42;;;;;;;9.07;2.85;;;16.50;44.30;;;;;;5088497;28;20323;-69
2021/04/26 11:06:27;;;;;;;6.63;3.58;;;16.50;44.50;;;;;;5086083;28;20211;-71
2021/04/26 11:09:08;;;;;;;6.40;2.95;;;16.60;44.20;;;;;;5097586;28;20209;-72
2021/04/26 11:11:50;;;;;;;3.70;3.05;;;16.20;43.80;;;;;;5089583;28;20215;-73
2021/04/26 11:14:29;;;;;;;4.28;2.85;;;15.90;45.30;;;;;;5101753;28;20584;-72
2021/04/26 11:16:59;;;;;;;7.60;3.22;;;16.10;45.40;;;;;;5096373;28;20205;-71
2021/04/26 11:19:26;;;;;;;9.52;2.85;;;16.50;45.60;;;;;;5101984;28;20230;-73
2021/04/26 11:22:01;;;;;;;5.50;3.40;;;16.60;45.60;;;;;;5089774;28;20196;-71
2021/04/26 11:25:00;;;;;;;5.40;2.83;;;16.90;44.80;;;;;;5091046;28;20226;-72
2021/04/26 11:27:27;;;;;;;5.47;2.90;;;17.00;43.70;;;;;;5094185;28;20688;-72
2021/04/26 11:30:17;;;;;;;4.05;3.17;;;16.60;42.40;;;;;;5093239;28;20207;-72
2021/04/26 11:33:10;;;;;;;4.63;2.95;;;16.60;43.60;;;;;;5094064;28;20218;-71
2021/04/26 11:36:20;;;;;;;2.85;2.03;;;16.20;44.80;;;;;;5093433;28;20239;-72
2021/04/26 11:38:48;;;;;;;4.35;2.17;;;16.40;45.50;;;;;;5098582;28;20241;-71
2021/04/26 11:41:16;;;;;;;4.55;2.60;;;16.60;45.90;;;;;;5087224;28;20207;-71
2021/04/26 11:43:50;;;;;;;4.20;2.30;;;17.00;45.90;;;;;;5104054;28;20218;-71
2021/04/26 11:46:30;;;;;;;5.82;2.85;;;17.30;45.00;;;;;;5085784;28;20667;-73
2021/04/26 11:49:17;;;;;;;4.60;2.95;;;17.60;44.50;;;;;;5097575;28;20363;-71
2021/04/26 11:51:45;;;;;;;4.80;2.73;;;17.90;43.70;;;;;;5099099;28;20228;-71
2021/04/26 11:54:18;;;;;;;3.92;2.50;;;18.00;43.10;;;;;;5083262;28;20478;-71
2021/04/26 11:57:04;;;;;;;4.75;2.78;;;17.80;43.20;;;;;;5081954;28;20636;-72
2021/04/26 11:59:33;;;;;;;5.13;2.65;;;17.50;42.50;;;;;;5084951;28;20205;-72
2021/04/26 12:01:59;;;;;;;5.47;2.92;;;17.40;43.00;;;;;;5084698;28;20205;-71
2021/04/26 12:04:38;;;;;;;7.10;3.85;;;17.50;43.10;;;;;;5092908;28;20235;-73
2021/04/26 12:07:05;;;;;;;5.30;2.77;;;17.40;42.70;;;;;;5092946;28;20209;-72
2021/04/26 12:09:33;;;;;;;4.55;2.80;;;17.20;42.50;;;;;;5086096;28;20443;-71
2021/04/26 12:12:01;;;;;;;5.85;3.20;;;16.80;42.20;;;;;;5094375;28;20222;-73
2021/04/26 12:14:29;;;;;;;5.15;3.17;;;16.20;43.30;;;;;;5094121;28;20217;-72
2021/04/26 12:17:14;;;;;;;5.70;3.33;;;16.30;43.60;;;;;;5092501;28;20214;-73
2021/04/26 12:19:41;;;;;;;5.65;3.45;;;16.60;44.10;;;;;;5093800;28;20200;-72
2021/04/26 12:22:08;;;;;;;4.00;2.63;;;16.90;43.50;;;;;;5093749;28;20200;-72
2021/04/26 12:24:35;;;;;;;5.05;3.35;;;17.20;43.30;;;;;;5092269;28;20285;-68
2021/04/26 12:27:08;;;;;;;4.65;2.70;;;17.30;42.80;;;;;;5102506;28;20542;-69
2021/04/26 12:29:35;;;;;;;5.60;3.10;;;17.60;42.50;;;;;;5104975;28;20513;-70
2021/04/26 12:32:13;;;;;;;7.72;2.88;;;17.70;42.20;;;;;;5093098;28;20472;-71
2021/04/26 12:34:57;;;;;;;8.23;3.08;;;17.90;41.80;;;;;;5091704;28;20232;-70
2021/04/26 12:37:26;;;;;;;9.48;3.38;;;17.60;42.40;;;;;;5092962;28;20212;-70
2021/04/26 12:40:17;;;;;;;8.98;3.80;;;17.70;42.60;;;;;;5092189;28;20192;-71
2021/04/26 12:42:44;;;;;;;6.88;3.00;;;17.60;42.20;;;;;;5092633;28;20225;-71
2021/04/26 12:45:14;;;;;;;7.85;3.72;;;17.30;42.10;;;;;;5093205;28;20630;-71
2021/04/26 12:47:52;;;;;;;5.28;3.30;;;16.70;42.30;;;;;;5091983;28;20213;-72
2021/04/26 12:50:23;;;;;;;4.40;2.85;;;16.30;43.70;;;;;;5097337;28;20198;-70
2021/04/26 12:53:17;;;;;;;6.18;3.22;;;16.00;43.10;;;;;;5082842;28;20265;-69
2021/04/26 12:55:47;;;;;;;5.28;3.17;;;16.00;43.30;;;;;;5065033;28;20195;-72
2021/04/26 12:58:16;;;;;;;3.22;2.50;;;15.90;43.70;;;;;;5102858;28;20208;-71
2021/04/26 13:00:46;;;;;;;4.32;3.38;;;15.70;43.90;;;;;;5102770;28;20228;-72
2021/04/26 13:03:30;;;;;;;3.28;2.50;;;15.60;44.30;;;;;;5089145;28;20228;-71